createdAt,value
2018-06-10T00:01:05.966Z,97750.27
2018-06-10T00:03:34.454Z,97733.02
2018-06-10T00:06:03.154Z,97747.22
2018-06-10T00:08:31.698Z,97749.25
2018-06-10T00:11:00.294Z,97739.09
2018-06-10T00:13:28.794Z,97758.38
2018-06-10T00:15:57.294Z,97756.35
2018-06-10T00:18:25.786Z,97776.64
2018-06-10T00:20:54.522Z,97794.91
2018-06-10T00:23:23.174Z,97773.59
2018-06-10T00:25:51.693Z,97780.70
2018-06-10T00:28:25.589Z,97793.89
2018-06-10T00:30:54.109Z,97796.94
2018-06-10T00:33:22.590Z,97784.76
2018-06-10T00:35:51.917Z,97805.05
2018-06-10T00:38:20.406Z,97828.39
2018-06-10T00:40:48.881Z,97786.79
2018-06-10T00:43:17.370Z,97756.35
2018-06-10T00:45:45.865Z,97794.91
2018-06-10T00:48:14.398Z,97812.16
2018-06-10T00:50:42.889Z,97834.48
2018-06-10T00:53:11.401Z,97860.86
2018-06-10T00:55:39.887Z,97816.21
2018-06-10T00:58:08.455Z,97860.86
2018-06-10T01:00:36.982Z,97877.09
2018-06-10T01:03:05.467Z,97859.84
2018-06-10T01:05:33.930Z,97846.66
2018-06-10T01:08:02.571Z,97874.05
2018-06-10T01:10:31.050Z,97906.52
2018-06-10T01:12:59.522Z,97871.00
2018-06-10T01:15:28.422Z,97865.93
2018-06-10T01:17:56.882Z,97877.09
2018-06-10T01:20:25.375Z,97894.34
2018-06-10T01:22:53.973Z,97875.06
2018-06-10T01:25:22.474Z,97919.70
2018-06-10T01:27:50.997Z,97902.46
2018-06-10T01:30:19.717Z,97890.28
2018-06-10T01:32:48.202Z,97901.45
2018-06-10T01:35:16.716Z,97915.65
2018-06-10T01:37:45.180Z,97916.66
2018-06-10T01:40:13.649Z,97922.75
2018-06-10T01:42:42.192Z,97965.37
2018-06-10T01:45:10.705Z,97960.30
2018-06-10T01:47:39.325Z,97922.75
2018-06-10T01:50:07.802Z,97992.77
2018-06-10T01:52:36.270Z,97981.61
2018-06-10T01:55:05.079Z,97938.98
2018-06-10T01:57:33.807Z,97967.41
2018-06-10T02:00:02.266Z,97952.17
2018-06-10T02:02:30.771Z,97946.09
2018-06-10T02:04:59.225Z,97931.88
2018-06-10T02:07:28.141Z,97950.15
2018-06-10T02:09:56.607Z,97952.17
2018-06-10T02:12:25.089Z,97957.25
2018-06-10T02:14:53.738Z,97959.28
2018-06-10T02:17:22.257Z,97957.25
2018-06-10T02:19:50.718Z,97937.97
2018-06-10T02:22:19.425Z,97963.34
2018-06-10T02:24:47.896Z,97958.27
2018-06-10T02:27:16.373Z,97950.15
2018-06-10T02:29:45.015Z,97944.06
2018-06-10T02:32:13.469Z,97914.64
2018-06-10T02:34:41.955Z,97917.68
2018-06-10T02:37:10.599Z,97953.20
2018-06-10T02:39:39.090Z,97915.65
2018-06-10T02:42:07.558Z,97905.50
2018-06-10T02:44:36.097Z,97885.21
2018-06-10T02:47:05.069Z,97909.56
2018-06-10T02:49:33.553Z,97903.47
2018-06-10T02:52:02.369Z,97890.28
2018-06-10T02:54:30.986Z,97889.27
2018-06-10T02:56:59.462Z,97878.11
2018-06-10T02:59:27.981Z,97908.55
2018-06-10T03:01:56.470Z,97912.61
2018-06-10T03:04:24.973Z,97892.31
2018-06-10T03:06:53.671Z,97904.48
2018-06-10T03:09:22.166Z,97890.28
2018-06-10T03:11:50.653Z,97891.30
2018-06-10T03:14:19.164Z,97914.64
2018-06-10T03:16:48.158Z,97886.23
2018-06-10T03:19:16.622Z,97880.13
2018-06-10T03:21:45.217Z,97913.63
2018-06-10T03:24:14.041Z,97887.23
2018-06-10T03:26:42.578Z,97885.21
2018-06-10T03:29:11.029Z,97871.00
2018-06-10T03:31:39.582Z,97938.98
2018-06-10T03:34:08.062Z,97899.41
2018-06-10T03:36:36.529Z,97879.12
2018-06-10T03:39:07.459Z,97930.88
2018-06-10T03:41:36.209Z,97913.63
2018-06-10T03:44:04.701Z,97905.50
2018-06-10T03:46:33.373Z,97868.98
2018-06-10T03:49:02.242Z,97899.41
2018-06-10T03:51:30.743Z,97881.15
2018-06-10T03:53:59.788Z,97892.31
2018-06-10T03:56:28.267Z,97865.93
2018-06-10T03:58:56.757Z,97883.18
2018-06-10T04:01:25.322Z,97883.18
2018-06-10T04:03:53.828Z,97889.27
2018-06-10T04:06:22.297Z,97903.47
2018-06-10T04:08:51.583Z,97908.55
2018-06-10T04:11:20.038Z,97890.28
2018-06-10T04:13:48.590Z,97889.27
2018-06-10T04:16:17.086Z,97908.55
2018-06-10T04:18:45.575Z,97917.68
2018-06-10T04:21:14.085Z,97902.46
2018-06-10T04:23:42.601Z,97902.46
2018-06-10T04:26:11.081Z,97894.34
2018-06-10T04:28:39.578Z,97922.75
2018-06-10T04:31:08.111Z,97898.41
2018-06-10T04:33:36.570Z,97920.72
2018-06-10T04:36:05.037Z,97893.33
2018-06-10T04:38:33.545Z,97931.88
2018-06-10T04:41:02.054Z,97893.33
2018-06-10T04:43:30.536Z,97878.11
2018-06-10T04:45:59.022Z,97891.30
2018-06-10T04:48:27.488Z,97874.05
2018-06-10T04:50:56.192Z,97888.25
2018-06-10T04:53:24.687Z,97883.18
2018-06-10T04:55:53.158Z,97872.02
2018-06-10T04:58:21.672Z,97875.06
2018-06-10T05:00:50.166Z,97868.98
2018-06-10T05:03:18.655Z,97882.17
2018-06-10T05:05:47.121Z,97877.09
2018-06-10T05:08:15.595Z,97898.41
2018-06-10T05:10:44.084Z,97899.41
2018-06-10T05:13:12.586Z,97880.13
2018-06-10T05:15:41.081Z,97884.20
2018-06-10T05:18:09.620Z,97901.45
2018-06-10T05:20:38.098Z,97879.12
2018-06-10T05:23:06.586Z,97855.78
2018-06-10T05:25:35.118Z,97849.70
2018-06-10T05:28:03.602Z,97841.58
2018-06-10T05:30:32.065Z,97816.21
2018-06-10T05:33:00.570Z,97844.63
2018-06-10T05:35:29.070Z,97794.91
2018-06-10T05:37:57.601Z,97785.77
2018-06-10T05:40:26.245Z,97729.97
2018-06-10T05:42:54.710Z,97766.49
2018-06-10T05:45:23.197Z,97763.45
2018-06-10T05:47:51.763Z,97700.55
2018-06-10T05:50:20.225Z,97721.85
2018-06-10T05:52:48.785Z,97715.77
2018-06-10T05:55:17.280Z,97697.50
2018-06-10T05:57:45.780Z,97680.25
2018-06-10T06:00:14.293Z,97664.02
2018-06-10T06:02:42.773Z,97654.88
2018-06-10T06:05:11.290Z,97706.63
2018-06-10T06:07:39.780Z,97574.73
2018-06-10T06:10:08.256Z,97572.70
2018-06-10T06:12:36.770Z,97487.48
2018-06-10T06:15:05.366Z,97518.94
2018-06-10T06:17:34.056Z,97509.80
2018-06-10T06:20:02.549Z,97505.74
2018-06-10T06:22:31.129Z,97584.87
2018-06-10T06:24:59.612Z,97445.89
2018-06-10T06:27:28.302Z,97518.94
2018-06-10T06:29:56.824Z,97460.09
2018-06-10T06:32:25.301Z,97427.63
2018-06-10T06:34:53.882Z,97347.48
2018-06-10T06:37:22.374Z,97376.89
2018-06-10T06:39:50.905Z,97412.41
2018-06-10T06:42:19.401Z,97355.59
2018-06-10T06:44:47.880Z,97420.52
2018-06-10T06:47:16.383Z,97340.37
2018-06-10T06:49:44.854Z,97380.95
2018-06-10T06:52:13.441Z,97270.38
2018-06-10T06:54:42.215Z,97293.70
2018-06-10T06:57:10.697Z,97301.82
2018-06-10T06:59:39.252Z,97237.91
2018-06-10T07:02:07.721Z,97299.80
2018-06-10T07:04:36.353Z,97283.56
2018-06-10T07:07:04.809Z,97157.77
2018-06-10T07:09:33.281Z,97105.02
2018-06-10T07:12:02.149Z,96989.37
2018-06-10T07:14:30.610Z,96967.05
2018-06-10T07:16:59.103Z,96875.75
2018-06-10T07:19:27.729Z,96866.63
2018-06-10T07:21:56.221Z,96826.05
2018-06-10T07:24:24.715Z,96877.78
2018-06-10T07:26:53.265Z,96989.37
2018-06-10T07:29:21.857Z,96804.75
2018-06-10T07:31:50.324Z,96832.14
2018-06-10T07:34:18.827Z,96870.69
2018-06-10T07:36:47.373Z,97036.03
2018-06-10T07:39:15.865Z,97011.69
2018-06-10T07:41:44.330Z,97006.61
2018-06-10T07:44:13.606Z,97095.88
2018-06-10T07:46:42.080Z,97106.03
2018-06-10T07:49:10.594Z,97076.61
2018-06-10T07:51:39.084Z,96897.06
2018-06-10T07:54:07.781Z,96867.64
2018-06-10T07:56:36.266Z,96904.16
2018-06-10T07:59:04.784Z,96882.86
2018-06-10T08:01:33.323Z,96858.52
2018-06-10T08:04:01.793Z,96783.45
2018-06-10T08:06:30.289Z,96700.27
2018-06-10T08:08:58.900Z,96879.81
2018-06-10T08:11:27.377Z,96791.56
2018-06-10T08:13:55.903Z,96650.57
2018-06-10T08:16:24.574Z,96757.08
2018-06-10T08:18:53.077Z,96692.16
2018-06-10T08:21:21.560Z,96921.41
2018-06-10T08:23:50.155Z,96807.80
2018-06-10T08:26:18.635Z,96868.66
2018-06-10T08:28:47.139Z,96803.73
2018-06-10T08:31:15.825Z,96938.65
2018-06-10T08:33:44.293Z,96939.66
2018-06-10T08:36:12.795Z,96871.70
2018-06-10T08:38:41.318Z,96888.94
2018-06-10T08:41:09.774Z,96934.59
2018-06-10T08:43:38.278Z,96921.41
2018-06-10T08:46:06.754Z,96881.84
2018-06-10T08:48:35.250Z,96923.43
2018-06-10T08:51:03.737Z,96834.16
2018-06-10T08:53:32.253Z,96826.05
2018-06-10T08:56:00.742Z,96790.55
2018-06-10T08:58:29.213Z,96874.74
2018-06-10T09:00:57.765Z,96796.63
2018-06-10T09:03:26.258Z,96840.25
2018-06-10T09:05:54.788Z,96833.16
2018-06-10T09:08:23.283Z,96795.62
2018-06-10T09:10:51.763Z,96804.75
2018-06-10T09:13:20.436Z,96710.41
2018-06-10T09:15:48.932Z,96693.17
2018-06-10T09:18:17.391Z,96716.50
2018-06-10T09:20:45.902Z,96630.28
2018-06-10T09:23:14.398Z,96642.45
2018-06-10T09:25:42.907Z,96723.60
2018-06-10T09:28:11.902Z,96746.94
2018-06-10T09:30:40.387Z,96659.70
2018-06-10T09:33:08.865Z,96537.98
2018-06-10T09:35:37.466Z,96564.36
2018-06-10T09:38:06.066Z,96537.98
2018-06-10T09:40:34.558Z,96537.98
2018-06-10T09:43:03.206Z,96559.28
2018-06-10T09:45:31.674Z,96562.33
2018-06-10T09:48:00.182Z,96488.28
2018-06-10T09:50:28.710Z,96523.78
2018-06-10T09:52:57.706Z,96459.89
2018-06-10T09:55:26.316Z,96573.48
2018-06-10T09:57:54.846Z,96514.66
2018-06-10T10:00:23.973Z,96607.97
2018-06-10T10:02:52.477Z,96534.94
2018-06-10T10:05:21.010Z,96605.94
2018-06-10T10:07:49.485Z,96641.44
2018-06-10T10:10:18.153Z,96673.91
2018-06-10T10:12:46.818Z,96585.66
2018-06-10T10:15:15.328Z,96446.70
2018-06-10T10:17:43.937Z,96373.67
2018-06-10T10:20:12.503Z,96380.77
2018-06-10T10:22:41.031Z,96558.27
2018-06-10T10:25:09.497Z,96629.27
2018-06-10T10:27:39.493Z,96608.98
2018-06-10T10:30:07.978Z,96442.64
2018-06-10T10:32:36.470Z,96356.44
2018-06-10T10:35:05.017Z,96510.59
2018-06-10T10:37:33.564Z,96450.76
2018-06-10T10:40:02.042Z,96376.72
2018-06-10T10:42:30.530Z,96387.87
2018-06-10T10:44:59.202Z,96428.44
2018-06-10T10:47:28.170Z,96517.70
2018-06-10T10:49:56.701Z,96458.88
2018-06-10T10:52:25.220Z,96482.20
2018-06-10T10:54:53.765Z,96412.22
2018-06-10T10:57:22.232Z,96290.52
2018-06-10T10:59:50.709Z,96357.45
2018-06-10T11:02:19.213Z,96462.93
2018-06-10T11:04:47.691Z,96500.45
2018-06-10T11:07:16.210Z,96350.34
2018-06-10T11:09:44.947Z,96296.59
2018-06-10T11:12:13.417Z,96367.59
2018-06-10T11:14:41.906Z,96319.92
2018-06-10T11:17:10.729Z,96370.63
2018-06-10T11:19:39.201Z,96257.04
2018-06-10T11:22:07.717Z,96219.52
2018-06-10T11:24:36.218Z,96188.08
2018-06-10T11:27:04.799Z,96453.80
2018-06-10T11:29:33.250Z,96489.30
2018-06-10T11:32:01.776Z,96415.26
2018-06-10T11:34:30.361Z,96260.08
2018-06-10T11:36:59.214Z,96421.34
2018-06-10T11:39:27.799Z,96460.91
2018-06-10T11:41:56.281Z,96532.91
2018-06-10T11:44:24.926Z,96448.73
2018-06-10T11:46:53.409Z,96327.02
2018-06-10T11:49:21.886Z,96234.73
2018-06-10T11:51:50.383Z,96373.67
2018-06-10T11:54:18.849Z,96440.61
2018-06-10T11:56:47.341Z,96457.86
2018-06-10T11:59:16.054Z,96372.66
2018-06-10T12:01:44.535Z,96166.78
2018-06-10T12:04:13.021Z,96140.41
2018-06-10T12:06:41.546Z,96049.13
2018-06-10T12:09:10.009Z,96417.29
2018-06-10T12:11:38.485Z,96122.16
2018-06-10T12:14:06.981Z,96042.03
2018-06-10T12:16:35.543Z,96213.43
2018-06-10T12:19:03.997Z,96285.44
2018-06-10T12:21:32.475Z,96240.81
2018-06-10T12:24:00.999Z,96387.87
2018-06-10T12:26:29.529Z,96191.12
2018-06-10T12:28:58.049Z,96062.31
2018-06-10T12:31:26.685Z,96102.88
2018-06-10T12:33:55.179Z,96227.63
2018-06-10T12:36:23.697Z,96063.33
2018-06-10T12:38:52.214Z,96124.19
2018-06-10T12:41:20.724Z,96201.26
2018-06-10T12:43:49.349Z,96192.13
2018-06-10T12:46:17.829Z,96185.03
2018-06-10T12:48:46.314Z,96146.49
2018-06-10T12:51:14.814Z,95978.14
2018-06-10T12:53:43.280Z,96111.00
2018-06-10T12:56:11.915Z,96005.53
2018-06-10T12:58:40.410Z,96106.94
2018-06-10T13:01:08.882Z,95998.43
2018-06-10T13:03:37.402Z,95906.14
2018-06-10T13:06:06.014Z,95981.19
2018-06-10T13:08:34.606Z,96040.01
2018-06-10T13:11:03.076Z,96039.00
2018-06-10T13:13:31.732Z,96055.22
2018-06-10T13:16:00.242Z,96142.44
2018-06-10T13:18:28.726Z,96132.30
2018-06-10T13:20:57.569Z,96197.20
2018-06-10T13:23:26.069Z,96116.07
2018-06-10T13:25:54.626Z,96021.75
2018-06-10T13:28:23.136Z,96085.64
2018-06-10T13:30:51.633Z,96068.41
2018-06-10T13:33:20.133Z,96150.55
2018-06-10T13:36:51.655Z,96100.86
2018-06-10T13:39:20.118Z,96148.52
2018-06-10T13:41:48.651Z,96203.28
2018-06-10T13:44:17.113Z,96156.64
2018-06-10T13:46:45.586Z,96129.25
2018-06-10T13:49:14.249Z,96216.47
2018-06-10T13:51:42.753Z,96308.77
2018-06-10T13:54:11.213Z,96234.73
2018-06-10T13:56:39.721Z,96181.99
2018-06-10T13:59:08.442Z,96083.62
2018-06-10T14:01:36.909Z,96034.94
2018-06-10T14:04:05.437Z,96104.91
2018-06-10T14:06:33.987Z,96138.38
2018-06-10T14:09:02.605Z,96233.71
2018-06-10T14:11:31.101Z,96161.70
2018-06-10T14:13:59.704Z,96157.65
2018-06-10T14:16:28.237Z,96118.09
2018-06-10T14:18:56.717Z,96177.94
2018-06-10T14:21:25.279Z,96226.61
2018-06-10T14:23:53.762Z,96213.43
2018-06-10T14:26:22.245Z,96240.81
2018-06-10T14:28:50.734Z,96066.38
2018-06-10T14:31:19.699Z,96085.64
2018-06-10T14:33:48.173Z,96136.36
2018-06-10T14:36:16.685Z,96197.20
2018-06-10T14:38:45.182Z,96204.30
2018-06-10T14:41:13.677Z,96225.60
2018-06-10T14:43:42.338Z,96262.11
2018-06-10T14:46:10.870Z,96300.65
2018-06-10T14:48:39.378Z,96365.56
2018-06-10T14:51:07.866Z,96266.17
2018-06-10T14:53:36.567Z,96379.77
2018-06-10T14:56:05.062Z,96368.60
2018-06-10T14:58:33.542Z,96381.79
2018-06-10T16:23:00.309Z,96499.44
2018-06-10T16:25:29.682Z,96423.38
2018-06-10T16:27:58.161Z,96426.41
2018-06-10T16:30:26.785Z,96343.25
2018-06-10T16:32:55.273Z,96309.78
2018-06-10T16:35:23.757Z,96340.20
2018-06-10T16:37:52.321Z,96449.74
2018-06-10T16:40:20.793Z,96361.50
2018-06-10T16:42:49.313Z,96318.91
2018-06-10T16:45:17.804Z,96441.63
2018-06-10T16:47:46.282Z,96571.45
2018-06-10T16:50:14.793Z,96661.73
2018-06-10T16:52:43.253Z,96634.34
2018-06-10T16:55:11.738Z,96620.14
2018-06-10T16:57:40.669Z,96551.17
2018-06-10T17:00:09.167Z,96559.28
2018-06-10T17:02:37.649Z,96709.41
2018-06-10T17:05:06.678Z,96706.36
2018-06-10T17:07:35.157Z,96667.81
2018-06-10T17:10:03.693Z,96674.91
2018-06-10T17:12:32.193Z,96683.03
2018-06-10T17:15:00.702Z,96749.97
2018-06-10T17:17:29.313Z,96732.73
2018-06-10T17:19:57.883Z,96772.30
2018-06-10T17:22:26.477Z,96765.19
2018-06-10T17:24:54.949Z,96718.53
2018-06-10T17:27:24.854Z,96809.82
2018-06-10T17:29:58.485Z,96850.39
2018-06-10T17:32:27.513Z,96828.08
2018-06-10T17:34:56.020Z,96802.72
2018-06-10T17:37:24.523Z,96767.22
2018-06-10T17:39:53.598Z,96816.92
2018-06-10T17:42:22.116Z,96872.72
2018-06-10T17:44:50.715Z,96810.84
2018-06-10T17:47:19.217Z,96873.73
2018-06-10T17:49:48.354Z,96879.81
2018-06-10T17:52:16.913Z,96907.20
2018-06-10T17:54:45.360Z,96920.39
2018-06-10T17:57:14.406Z,96876.77
2018-06-10T17:59:42.899Z,96818.95
2018-06-10T18:02:11.371Z,96759.11
2018-06-10T18:04:39.970Z,96839.23
2018-06-10T18:07:08.473Z,96834.16
2018-06-10T18:09:36.949Z,96943.72
2018-06-10T18:12:05.581Z,96992.41
2018-06-10T18:14:34.064Z,97004.58
2018-06-10T18:17:02.675Z,96957.92
2018-06-10T18:19:32.637Z,96983.28
2018-06-10T18:22:01.219Z,97117.19
2018-06-10T18:24:29.906Z,97058.34
2018-06-10T18:26:58.455Z,97110.09
2018-06-10T18:29:27.158Z,97087.77
2018-06-10T18:31:56.156Z,97168.92
2018-06-10T18:34:24.751Z,97126.31
2018-06-10T18:36:53.281Z,97216.60
2018-06-10T18:39:21.800Z,97243.99
2018-06-10T18:41:50.345Z,97245.01
2018-06-10T18:44:18.904Z,97227.77
2018-06-10T18:46:50.590Z,97214.58
2018-06-10T18:49:19.156Z,97267.33
2018-06-10T18:51:50.207Z,97378.92
2018-06-10T18:54:19.206Z,97319.07
2018-06-10T18:56:47.734Z,97356.61
2018-06-10T18:59:16.338Z,97303.84
2018-06-10T19:01:45.066Z,97205.44
2018-06-10T19:04:13.541Z,97224.72
2018-06-10T19:06:42.030Z,97179.07
2018-06-10T19:09:11.051Z,97326.17
2018-06-10T19:11:39.557Z,97378.92
2018-06-10T19:14:08.105Z,97444.87
2018-06-10T19:16:37.089Z,97389.07
2018-06-10T19:19:05.598Z,97441.83
2018-06-10T19:21:34.101Z,97469.22
2018-06-10T19:24:02.610Z,97484.44
2018-06-10T19:26:31.090Z,97516.91
2018-06-10T19:28:59.716Z,97529.08
2018-06-10T19:31:28.202Z,97511.83
2018-06-10T19:33:56.828Z,97534.16
2018-06-10T19:36:25.726Z,97559.52
2018-06-10T19:38:54.225Z,97508.78
2018-06-10T19:41:22.743Z,97596.04
2018-06-10T19:43:51.462Z,97610.24
2018-06-10T19:46:19.970Z,97668.08
2018-06-10T19:48:48.499Z,97684.31
2018-06-10T19:51:17.270Z,97661.98
2018-06-10T19:53:45.784Z,97688.37
2018-06-10T19:56:14.370Z,97681.27
2018-06-10T19:58:42.910Z,97705.62
2018-06-10T20:01:11.414Z,97746.20
2018-06-10T20:03:40.178Z,97737.07
2018-06-10T20:06:08.697Z,97708.66
2018-06-10T20:08:37.184Z,97722.86
2018-06-10T20:11:05.831Z,97777.66
2018-06-10T20:13:34.309Z,97750.27
2018-06-10T20:16:02.826Z,97741.12
2018-06-10T20:18:31.322Z,97793.89
2018-06-10T20:20:59.845Z,97782.73
2018-06-10T20:23:28.285Z,97776.64
2018-06-10T20:25:56.978Z,97792.88
2018-06-10T20:28:25.437Z,97792.88
2018-06-10T20:30:53.911Z,97815.20
2018-06-10T20:33:22.421Z,97835.48
2018-06-10T20:35:50.888Z,97788.81
2018-06-10T20:38:19.365Z,97748.23
2018-06-10T20:40:47.869Z,97737.07
2018-06-10T20:43:16.349Z,97765.48
2018-06-10T20:45:45.387Z,97714.75
2018-06-10T20:48:13.885Z,97722.86
2018-06-10T20:50:42.420Z,97697.50
2018-06-10T20:53:10.974Z,97716.78
2018-06-10T20:55:39.429Z,97699.53
2018-06-10T20:58:07.892Z,97704.60
2018-06-10T21:00:36.858Z,97682.28
2018-06-10T21:03:05.597Z,97682.28
2018-06-10T21:05:34.087Z,97679.23
2018-06-10T21:08:02.957Z,97686.34
2018-06-10T21:10:31.421Z,97694.45
2018-06-10T21:12:59.889Z,97724.89
2018-06-10T21:15:28.429Z,97744.17
2018-06-10T21:17:56.923Z,97770.55
2018-06-10T21:20:25.417Z,97752.29
2018-06-10T21:22:54.086Z,97766.49
2018-06-10T21:25:22.560Z,97754.31
2018-06-10T21:27:51.021Z,97759.39
2018-06-10T21:30:19.534Z,97760.41
2018-06-10T21:32:48.029Z,97778.67
2018-06-10T21:35:16.549Z,97771.57
2018-06-10T21:37:45.200Z,97790.84
2018-06-10T21:40:13.685Z,97851.72
2018-06-10T21:42:42.181Z,97844.63
2018-06-10T21:45:10.707Z,97831.44
2018-06-10T21:47:39.394Z,97874.05
2018-06-10T21:50:07.894Z,97886.23
2018-06-10T21:52:36.595Z,97887.23
2018-06-10T21:55:05.082Z,97906.52
2018-06-10T21:57:33.582Z,97906.52
2018-06-10T22:00:02.079Z,97934.93
2018-06-10T22:02:30.618Z,97950.15
2018-06-10T22:04:59.077Z,97954.21
2018-06-10T22:07:27.541Z,97956.23
2018-06-10T22:09:56.066Z,97970.45
2018-06-10T22:12:24.534Z,98026.25
2018-06-10T22:14:52.997Z,98001.90
2018-06-10T22:17:21.477Z,97993.78
2018-06-10T22:19:50.104Z,98032.34
2018-06-10T22:22:18.602Z,98048.58
2018-06-10T22:24:47.151Z,98079.02
2018-06-10T22:27:15.676Z,98078.00
2018-06-10T22:29:44.151Z,98112.50
2018-06-10T22:32:12.819Z,98095.25
2018-06-10T22:34:41.285Z,98115.55
2018-06-10T22:37:09.757Z,98130.77
2018-06-10T22:39:38.253Z,98161.21
2018-06-10T22:42:07.032Z,98174.41
2018-06-10T22:44:35.664Z,98165.27
2018-06-10T22:47:04.186Z,98171.36
2018-06-10T22:49:32.628Z,98190.64
2018-06-10T22:52:01.229Z,98200.78
2018-06-10T22:54:38.679Z,98166.28
2018-06-10T22:57:07.933Z,98218.03
2018-06-10T22:59:36.427Z,98258.63
2018-06-10T23:02:06.073Z,98244.42
2018-06-10T23:04:34.826Z,98224.13
2018-06-10T23:07:03.351Z,98214.99
2018-06-10T23:09:32.022Z,98261.67
2018-06-10T23:12:00.485Z,98290.09
2018-06-10T23:14:29.005Z,98273.85
2018-06-10T23:16:57.507Z,98303.28
2018-06-10T23:19:26.018Z,98278.92
2018-06-10T23:21:54.521Z,98299.22
2018-06-10T23:24:22.998Z,98311.40
2018-06-10T23:26:51.560Z,98345.90
2018-06-10T23:29:20.083Z,98304.30
2018-06-10T23:31:48.577Z,98321.55
2018-06-10T23:34:17.559Z,98344.89
2018-06-10T23:36:46.129Z,98371.27
2018-06-10T23:39:14.619Z,98338.80
2018-06-10T23:41:43.278Z,98345.90
2018-06-10T23:44:11.746Z,98360.11
2018-06-10T23:46:40.382Z,98380.41
2018-06-10T23:49:08.906Z,98423.03
2018-06-10T23:51:37.420Z,98357.06
2018-06-10T23:54:05.897Z,98364.17
2018-06-10T23:56:34.371Z,98403.75
2018-06-10T23:59:02.881Z,98365.19
